Time;durP1;ratioP1;P1;durP2;ratioP2;P2;SDS_P1;SDS_P2;PMS_P1;PMS_P2;Temp;Humidity;BMP_temperature;BMP_pressure;BME280_temperature;BME280_humidity;BME280_pressure;Samples;Min_cycle;Max_cycle;Signal;HPM_P1;HPM_P2
2023/06/26 00:00:16;;;;;;;3.95;2.88;;;20.70;99.90;;;;;;6219068;23;20459;-85
2023/06/26 00:02:42;;;;;;;4.97;3.00;;;20.70;99.90;;;;;;6245932;23;20020;-87
2023/06/26 00:05:08;;;;;;;3.45;2.60;;;20.70;99.90;;;;;;6246145;23;20024;-85
2023/06/26 00:07:34;;;;;;;4.60;2.45;;;20.60;99.90;;;;;;6218479;23;20028;-86
2023/06/26 00:10:00;;;;;;;3.22;2.10;;;20.70;99.90;;;;;;6245711;23;20103;-86
2023/06/26 00:12:26;;;;;;;4.13;2.58;;;20.70;99.90;;;;;;6219612;23;20043;-86
2023/06/26 00:14:52;;;;;;;5.55;3.80;;;20.60;99.90;;;;;;6245661;23;20020;-86
2023/06/26 00:17:18;;;;;;;5.68;5.18;;;20.60;99.90;;;;;;6219587;23;20024;-85
2023/06/26 00:19:44;;;;;;;7.30;6.68;;;20.60;99.90;;;;;;6246038;23;20048;-86
2023/06/26 00:22:10;;;;;;;11.95;10.90;;;20.60;99.90;;;;;;6246061;23;20082;-88
2023/06/26 00:24:36;;;;;;;4.88;3.78;;;20.50;99.90;;;;;;6218775;23;20469;-85
2023/06/26 00:27:02;;;;;;;4.72;3.95;;;20.50;99.90;;;;;;6245740;23;20020;-85
2023/06/26 00:29:27;;;;;;;10.15;9.38;;;20.50;99.90;;;;;;6245509;23;20016;-85
2023/06/26 00:31:53;;;;;;;5.32;4.30;;;20.40;99.90;;;;;;6218719;23;20415;-85
2023/06/26 00:34:19;;;;;;;15.50;14.40;;;20.40;99.90;;;;;;6245655;23;20028;-88
2023/06/26 00:36:45;;;;;;;5.18;4.68;;;20.40;99.90;;;;;;6246162;23;20016;-85
2023/06/26 00:39:11;;;;;;;5.47;3.53;;;20.40;99.90;;;;;;6245529;23;20103;-86
2023/06/26 00:41:37;;;;;;;6.68;6.07;;;20.40;99.90;;;;;;6245760;23;20326;-86
2023/06/26 00:44:04;;;;;;;16.20;15.02;;;20.30;99.90;;;;;;6245862;23;20060;-86
2023/06/26 00:46:30;;;;;;;75.80;70.47;;;20.40;99.90;;;;;;6218544;23;20020;-86
2023/06/26 00:48:59;;;;;;;11.45;10.65;;;20.40;99.90;;;;;;6218900;23;20022;-87
2023/06/26 00:51:29;;;;;;;9.32;8.63;;;20.30;99.90;;;;;;6193963;23;20016;-85
2023/06/26 00:53:55;;;;;;;56.42;52.45;;;20.30;99.90;;;;;;6246271;23;20020;-86
2023/06/26 01:03:51;;;;;;;45.65;42.58;;;20.20;99.90;;;;;;6245515;23;20015;-85
2023/06/26 01:06:18;;;;;;;7.85;7.22;;;20.20;99.90;;;;;;6218681;23;20024;-85
2023/06/26 01:08:45;;;;;;;40.28;37.53;;;20.10;99.90;;;;;;6245496;23;20024;-86
2023/06/26 01:11:11;;;;;;;4.07;2.17;;;20.10;99.90;;;;;;6245116;23;20048;-88
2023/06/26 01:13:39;;;;;;;3.72;2.30;;;20.10;99.90;;;;;;6245436;23;20050;-85
2023/06/26 01:16:05;;;;;;;3.97;2.88;;;20.00;99.90;;;;;;6218660;23;20032;-86
2023/06/26 01:18:32;;;;;;;5.30;4.80;;;20.00;99.90;;;;;;6245240;23;20471;-85
2023/06/26 01:21:01;;;;;;;5.57;3.78;;;20.00;99.90;;;;;;6245111;23;20343;-85
2023/06/26 01:23:58;;;;;;;4.93;2.92;;;20.00;99.90;;;;;;6218424;23;20081;-85
2023/06/26 01:26:28;;;;;;;4.18;2.50;;;19.90;99.90;;;;;;6218374;23;20028;-85
2023/06/26 01:28:56;;;;;;;51.58;48.03;;;19.90;99.90;;;;;;6218533;23;20024;-86
2023/06/26 01:31:23;;;;;;;22.77;21.25;;;19.90;99.90;;;;;;6245585;23;20362;-87
2023/06/26 01:33:50;;;;;;;83.45;77.35;;;19.90;99.90;;;;;;6245476;23;20024;-86
2023/06/26 01:36:16;;;;;;;78.13;72.50;;;19.80;99.90;;;;;;6218582;23;20020;-85
2023/06/26 01:38:42;;;;;;;13.80;12.88;;;19.80;99.90;;;;;;6245653;23;20370;-87
2023/06/26 01:41:08;;;;;;;29.88;27.80;;;19.80;99.90;;;;;;6245384;23;20032;-87
2023/06/26 01:44:01;;;;;;;178.27;165.63;;;19.70;99.90;;;;;;6245015;23;20028;-85
2023/06/26 01:46:42;;;;;;;65.43;61.53;;;19.70;99.90;;;;;;6218966;23;20090;-87
2023/06/26 01:49:24;;;;;;;73.53;69.18;;;19.70;99.90;;;;;;6245168;23;20081;-85
2023/06/26 01:52:16;;;;;;;52.47;49.33;;;19.60;99.90;;;;;;6245105;23;20095;-86
2023/06/26 01:55:00;;;;;;;212.30;197.85;;;19.70;99.90;;;;;;6244968;23;20024;-87
2023/06/26 01:57:28;;;;;;;229.50;213.98;;;19.70;99.90;;;;;;6245385;23;20012;-87
2023/06/26 01:59:55;;;;;;;225.23;210.10;;;19.70;99.90;;;;;;6244997;23;20358;-86
2023/06/26 02:02:24;;;;;;;270.08;252.57;;;19.70;99.90;;;;;;6245150;23;20015;-86
2023/06/26 02:04:50;;;;;;;80.68;76.03;;;19.70;99.90;;;;;;6218218;23;20091;-86
2023/06/26 02:07:16;;;;;;;89.40;84.25;;;19.70;99.90;;;;;;6219200;23;20384;-86
2023/06/26 02:09:42;;;;;;;245.88;229.73;;;19.70;99.90;;;;;;6220218;23;20020;-86
2023/06/26 02:12:08;;;;;;;100.82;95.07;;;19.70;99.90;;;;;;6247316;23;20016;-86
2023/06/26 02:14:33;;;;;;;224.48;209.25;;;19.70;99.90;;;;;;6247260;23;20016;-85
2023/06/26 02:17:00;;;;;;;206.43;192.52;;;19.90;99.90;;;;;;6247149;23;20020;-85
2023/06/26 02:19:27;;;;;;;84.57;79.75;;;19.60;99.90;;;;;;6247282;23;20016;-86
2023/06/26 02:21:53;;;;;;;190.18;177.05;;;19.60;99.90;;;;;;6246773;23;20467;-85
2023/06/26 02:24:19;;;;;;;87.63;82.70;;;19.60;99.90;;;;;;6246977;23;20027;-85
2023/06/26 02:26:45;;;;;;;82.88;78.05;;;19.50;99.90;;;;;;6247105;23;20095;-87
2023/06/26 02:29:11;;;;;;;208.82;194.82;;;19.50;99.90;;;;;;6219907;23;20020;-86
2023/06/26 02:31:37;;;;;;;229.05;213.70;;;19.50;99.90;;;;;;6220421;23;20056;-87
2023/06/26 02:34:03;;;;;;;52.50;49.22;;;19.50;99.90;;;;;;6219657;23;20027;-85
2023/06/26 02:36:29;;;;;;;76.95;72.50;;;19.50;99.90;;;;;;6246756;23;20016;-85
2023/06/26 02:38:54;;;;;;;67.80;63.65;;;19.40;99.90;;;;;;6219878;23;20027;-85
2023/06/26 02:41:20;;;;;;;203.15;189.48;;;19.50;99.90;;;;;;6247068;23;20016;-86
2023/06/26 02:43:46;;;;;;;178.70;166.23;;;19.40;99.90;;;;;;6246910;23;20020;-85
2023/06/26 02:46:12;;;;;;;61.03;57.42;;;19.40;99.90;;;;;;6246654;23;20020;-84
2023/06/26 02:48:37;;;;;;;69.45;65.40;;;19.30;99.90;;;;;;6246929;23;20023;-85
2023/06/26 02:51:03;;;;;;;69.72;65.75;;;19.40;99.90;;;;;;6246520;23;20054;-85
2023/06/26 02:53:29;;;;;;;66.38;62.45;;;19.40;99.90;;;;;;6246108;23;20083;-84
2023/06/26 02:55:54;;;;;;;182.82;170.30;;;19.40;99.90;;;;;;6246904;23;20020;-86
2023/06/26 02:58:20;;;;;;;167.65;155.85;;;19.30;99.90;;;;;;6246089;23;20273;-85
2023/06/26 03:00:46;;;;;;;60.13;56.58;;;19.30;99.90;;;;;;6246856;23;20059;-85
2023/06/26 03:03:13;;;;;;;153.13;142.52;;;19.30;99.90;;;;;;6246899;23;20023;-84
2023/06/26 03:05:38;;;;;;;37.72;35.33;;;19.30;99.90;;;;;;6246847;23;20038;-86
2023/06/26 03:08:05;;;;;;;18.75;17.42;;;19.30;99.90;;;;;;6246037;23;20028;-86
2023/06/26 03:10:30;;;;;;;14.30;13.27;;;19.30;99.90;;;;;;6246383;23;20478;-86
2023/06/26 03:12:56;;;;;;;87.80;81.47;;;19.30;99.90;;;;;;6246366;23;20028;-85
2023/06/26 03:15:22;;;;;;;88.97;82.57;;;19.40;99.90;;;;;;6246812;23;20031;-87
2023/06/26 03:17:47;;;;;;;83.28;77.43;;;19.40;99.90;;;;;;6246114;23;20462;-85
2023/06/26 03:20:13;;;;;;;15.15;14.15;;;19.40;99.90;;;;;;6219097;23;20126;-84
2023/06/26 03:22:39;;;;;;;90.45;83.95;;;19.40;99.90;;;;;;6246774;23;20357;-85
2023/06/26 03:25:05;;;;;;;18.08;16.75;;;19.50;99.90;;;;;;6246513;23;20016;-86
2023/06/26 03:27:30;;;;;;;22.08;20.55;;;19.50;99.90;;;;;;6219492;23;20028;-86
2023/06/26 03:29:56;;;;;;;96.30;89.47;;;19.70;99.90;;;;;;6245715;23;20312;-85
2023/06/26 03:32:22;;;;;;;106.45;98.72;;;19.80;99.90;;;;;;6219192;23;20032;-85
2023/06/26 03:34:47;;;;;;;35.95;33.20;;;20.00;99.90;;;;;;6247281;23;20020;-85
2023/06/26 03:37:13;;;;;;;135.75;125.90;;;20.20;99.90;;;;;;6247393;23;20455;-84
2023/06/26 03:39:39;;;;;;;41.83;38.72;;;20.40;99.90;;;;;;6220777;23;20024;-84
2023/06/26 03:42:05;;;;;;;47.40;44.38;;;20.50;99.90;;;;;;6220764;23;20024;-84
2023/06/26 03:44:30;;;;;;;193.07;179.68;;;20.60;99.90;;;;;;6247254;23;20063;-85
2023/06/26 03:46:56;;;;;;;250.93;234.52;;;20.70;99.90;;;;;;6247185;23;20439;-85
2023/06/26 03:49:22;;;;;;;264.23;247.32;;;20.70;99.90;;;;;;6246775;23;20036;-85
2023/06/26 03:51:47;;;;;;;198.70;184.90;;;20.80;99.90;;;;;;6246572;23;20091;-87
2023/06/26 03:54:13;;;;;;;6.18;4.93;;;20.80;99.90;;;;;;6246113;23;20043;-87
2023/06/26 03:56:39;;;;;;;6.72;4.55;;;20.90;99.90;;;;;;6219330;23;20032;-84
2023/06/26 03:59:05;;;;;;;18.77;17.42;;;20.90;99.90;;;;;;6246018;23;20023;-86
2023/06/26 04:01:30;;;;;;;106.70;98.97;;;20.90;99.90;;;;;;6218804;23;20016;-85
2023/06/26 04:03:56;;;;;;;31.33;29.23;;;20.90;99.90;;;;;;6219774;23;20028;-86
2023/06/26 04:06:21;;;;;;;100.03;94.35;;;20.90;99.90;;;;;;6246547;23;20056;-84
2023/06/26 04:08:47;;;;;;;308.73;289.33;;;20.90;99.90;;;;;;6247217;23;20020;-85
2023/06/26 04:11:13;;;;;;;358.85;336.38;;;20.90;99.90;;;;;;6246356;23;20024;-84
2023/06/26 04:13:39;;;;;;;79.82;75.18;;;20.90;99.90;;;;;;6245933;23;20020;-86
2023/06/26 04:16:06;;;;;;;140.43;133.15;;;20.90;99.90;;;;;;6246376;23;20382;-84
2023/06/26 04:18:31;;;;;;;498.02;467.45;;;20.90;99.90;;;;;;6245835;23;20024;-88
2023/06/26 04:21:11;;;;;;;228.20;216.57;;;20.90;99.90;;;;;;6245770;23;20100;-86
2023/06/26 04:23:38;;;;;;;303.67;286.95;;;21.00;99.90;;;;;;6219208;23;20017;-85
2023/06/26 04:26:05;;;;;;;600.72;561.80;;;21.00;99.90;;;;;;6245625;23;20046;-86
2023/06/26 04:28:34;;;;;;;638.05;592.05;;;21.00;99.90;;;;;;6245537;23;20023;-86
2023/06/26 04:31:01;;;;;;;23.73;22.10;;;21.00;99.90;;;;;;6218598;23;20074;-85
2023/06/26 04:33:27;;;;;;;186.75;173.95;;;21.10;99.90;;;;;;6245782;23;20016;-84
2023/06/26 04:35:53;;;;;;;131.48;124.15;;;21.10;99.90;;;;;;6218811;23;20334;-87
2023/06/26 04:38:19;;;;;;;74.72;70.25;;;21.10;99.90;;;;;;6246089;23;20031;-87
2023/06/26 04:40:45;;;;;;;28.92;27.17;;;21.20;99.90;;;;;;6193783;23;20031;-84
2023/06/26 04:43:11;;;;;;;19.25;17.73;;;21.30;99.90;;;;;;6218722;23;20443;-85
2023/06/26 04:45:37;;;;;;;6.75;3.85;;;21.30;99.90;;;;;;6218938;23;20020;-85
2023/06/26 04:48:03;;;;;;;12.82;11.63;;;21.30;99.90;;;;;;6218561;23;20347;-84
2023/06/26 04:50:30;;;;;;;44.60;41.45;;;21.40;99.90;;;;;;6245550;23;20531;-86
2023/06/26 04:52:56;;;;;;;104.65;96.70;;;21.50;99.90;;;;;;6245725;23;20035;-84
2023/06/26 04:55:24;;;;;;;22.33;20.40;;;21.60;99.90;;;;;;6245437;23;20070;-84
2023/06/26 04:57:50;;;;;;;5.03;3.58;;;21.60;99.90;;;;;;6218353;23;20026;-85
2023/06/26 05:00:16;;;;;;;5.18;3.28;;;21.60;99.90;;;;;;6245973;23;20030;-84
2023/06/26 05:02:42;;;;;;;5.00;3.45;;;21.60;99.90;;;;;;6218725;23;20024;-85
2023/06/26 05:05:08;;;;;;;6.93;3.00;;;21.50;99.90;;;;;;6218915;23;20020;-83
2023/06/26 05:07:34;;;;;;;5.55;2.90;;;21.60;99.90;;;;;;6245198;23;20024;-85
2023/06/26 05:10:00;;;;;;;6.15;3.40;;;21.50;99.90;;;;;;6245567;23;20012;-86
2023/06/26 05:12:25;;;;;;;6.13;3.10;;;21.40;99.90;;;;;;6244657;23;20026;-84
2023/06/26 05:14:51;;;;;;;7.95;3.38;;;21.30;99.90;;;;;;6245043;23;20084;-85
2023/06/26 05:17:17;;;;;;;12.30;11.30;;;21.20;99.90;;;;;;6245317;23;20020;-85
2023/06/26 05:19:43;;;;;;;42.35;39.20;;;21.20;99.90;;;;;;6245626;23;20461;-86
2023/06/26 05:22:09;;;;;;;75.93;70.53;;;21.20;99.90;;;;;;6245390;23;20113;-84
2023/06/26 05:24:38;;;;;;;7.72;4.10;;;21.00;99.90;;;;;;6219075;23;20043;-85
2023/06/26 05:27:05;;;;;;;361.83;338.90;;;20.90;99.90;;;;;;6245233;23;20122;-87
2023/06/26 05:29:31;;;;;;;21.55;19.67;;;20.90;99.90;;;;;;6218413;23;20020;-85
2023/06/26 05:31:58;;;;;;;54.22;49.90;;;20.90;99.90;;;;;;6245581;23;20020;-87
2023/06/26 05:34:25;;;;;;;12.85;4.15;;;20.80;99.90;;;;;;6218685;23;20415;-86
2023/06/26 05:36:52;;;;;;;11.48;5.20;;;20.70;99.90;;;;;;6245244;23;20043;-85
2023/06/26 05:39:18;;;;;;;14.77;4.65;;;20.70;99.90;;;;;;6218186;23;20020;-85
2023/06/26 05:41:44;;;;;;;9.15;2.67;;;20.60;99.90;;;;;;6245450;22;20101;-86
2023/06/26 05:44:10;;;;;;;8.20;2.42;;;20.60;99.90;;;;;;6248400;23;20031;-85
2023/06/26 05:46:36;;;;;;;8.82;2.88;;;20.50;99.90;;;;;;6221424;23;20016;-87
2023/06/26 05:49:02;;;;;;;8.23;2.38;;;20.40;99.90;;;;;;6221070;23;20154;-83
2023/06/26 05:51:28;;;;;;;7.07;2.35;;;20.40;99.90;;;;;;6221527;23;20443;-86
2023/06/26 05:53:54;;;;;;;6.10;1.70;;;20.30;99.90;;;;;;6248627;23;20085;-86
2023/06/26 05:56:20;;;;;;;5.68;2.35;;;20.30;99.90;;;;;;6248307;23;20474;-85
2023/06/26 05:58:47;;;;;;;8.65;1.90;;;20.20;99.90;;;;;;6248161;23;20059;-84
2023/06/26 06:01:13;;;;;;;10.18;2.60;;;20.20;99.90;;;;;;6222010;23;20012;-85
2023/06/26 06:03:39;;;;;;;6.88;1.70;;;20.10;99.90;;;;;;6248420;23;20024;-83
2023/06/26 06:06:05;;;;;;;6.95;2.05;;;20.10;99.90;;;;;;6221811;23;20024;-84
2023/06/26 06:08:31;;;;;;;8.13;2.05;;;20.10;99.90;;;;;;6248446;23;20073;-85
2023/06/26 06:10:57;;;;;;;7.03;1.88;;;20.20;99.90;;;;;;6248115;23;20347;-84
2023/06/26 06:13:23;;;;;;;7.63;1.20;;;20.20;99.90;;;;;;6248304;23;20012;-85
2023/06/26 06:15:49;;;;;;;7.70;1.52;;;20.40;99.90;;;;;;6248786;23;20024;-84
2023/06/26 06:18:15;;;;;;;5.78;1.60;;;20.50;99.90;;;;;;6221654;23;20020;-85
2023/06/26 06:20:40;;;;;;;9.57;2.10;;;20.60;99.90;;;;;;6248809;23;20008;-84
2023/06/26 06:23:06;;;;;;;7.70;1.00;;;20.50;99.90;;;;;;6221766;23;20062;-84
2023/06/26 06:25:32;;;;;;;11.85;1.88;;;20.40;99.90;;;;;;6248471;23;20020;-83
2023/06/26 06:27:57;;;;;;;5.22;1.38;;;20.50;99.90;;;;;;6247816;23;20024;-84
2023/06/26 06:30:23;;;;;;;10.07;2.10;;;20.40;99.90;;;;;;6248202;23;20023;-83
2023/06/26 06:32:51;;;;;;;5.43;1.17;;;20.50;99.90;;;;;;6248442;23;20454;-86
2023/06/26 06:35:20;;;;;;;5.15;1.17;;;20.40;99.90;;;;;;6221499;23;20024;-83
2023/06/26 06:37:46;;;;;;;8.50;1.73;;;20.50;99.90;;;;;;6248659;23;20051;-85
2023/06/26 06:40:12;;;;;;;6.05;1.27;;;20.50;99.90;;;;;;6220837;23;20343;-84
2023/06/26 06:42:38;;;;;;;7.93;1.17;;;20.60;99.90;;;;;;6221525;23;20016;-84
2023/06/26 06:45:04;;;;;;;8.25;2.10;;;20.60;99.90;;;;;;6221254;23;20573;-86
2023/06/26 06:47:31;;;;;;;10.32;1.50;;;20.60;99.90;;;;;;6247937;23;20024;-86
2023/06/26 06:49:57;;;;;;;6.85;1.70;;;20.80;99.90;;;;;;6221014;23;20023;-84
2023/06/26 06:52:23;;;;;;;9.77;1.27;;;21.00;99.90;;;;;;6211510;23;20029;-84
2023/06/26 06:54:58;;;;;;;3.60;0.80;;;21.00;99.90;;;;;;6216043;23;20020;-83
2023/06/26 06:57:24;;;;;;;8.18;1.02;;;21.10;99.90;;;;;;6216438;23;20017;-84
2023/06/26 06:59:50;;;;;;;5.13;1.10;;;21.10;99.90;;;;;;6216069;23;20032;-83
2023/06/26 07:02:19;;;;;;;5.10;1.00;;;21.10;99.90;;;;;;6215944;23;20013;-85
2023/06/26 07:04:44;;;;;;;4.50;1.05;;;21.30;99.90;;;;;;6189889;23;20017;-82
2023/06/26 07:07:13;;;;;;;6.80;0.90;;;21.40;99.90;;;;;;6216106;23;20056;-82
2023/06/26 07:09:39;;;;;;;3.50;1.08;;;21.50;99.90;;;;;;6216505;23;20039;-83
2023/06/26 07:12:05;;;;;;;4.22;1.00;;;21.70;99.90;;;;;;6216133;23;20092;-83
2023/06/26 07:14:31;;;;;;;5.20;0.82;;;21.80;99.90;;;;;;6216403;23;20138;-83
2023/06/26 07:16:56;;;;;;;3.03;0.60;;;21.80;99.90;;;;;;6216275;23;20048;-83
2023/06/26 07:19:22;;;;;;;7.20;0.70;;;21.80;99.90;;;;;;6216074;23;20024;-83
2023/06/26 07:21:48;;;;;;;5.95;0.80;;;21.80;99.90;;;;;;6216164;23;20058;-85
2023/06/26 07:24:13;;;;;;;2.30;0.60;;;21.90;99.90;;;;;;6216448;23;20021;-85
2023/06/26 07:26:39;;;;;;;1.60;0.52;;;21.90;99.90;;;;;;6216242;23;20092;-85
2023/06/26 07:29:05;;;;;;;3.83;0.77;;;21.90;99.90;;;;;;6189486;23;20024;-84
2023/06/26 07:31:31;;;;;;;2.72;0.70;;;22.20;99.90;;;;;;6216359;23;20082;-86
2023/06/26 07:33:56;;;;;;;5.43;0.60;;;22.30;99.90;;;;;;6189193;23;20043;-85
2023/06/26 07:36:22;;;;;;;3.35;1.05;;;22.30;99.90;;;;;;6189269;23;20024;-83
2023/06/26 07:38:48;;;;;;;3.45;0.90;;;22.20;99.90;;;;;;6189353;23;20020;-85
2023/06/26 07:41:14;;;;;;;3.83;0.63;;;22.20;99.90;;;;;;6216055;23;20021;-84
2023/06/26 07:43:39;;;;;;;3.60;0.77;;;22.10;99.90;;;;;;6216183;23;20020;-84
2023/06/26 07:46:05;;;;;;;2.97;0.50;;;22.30;99.90;;;;;;6188974;23;20107;-84
2023/06/26 07:48:31;;;;;;;2.47;0.50;;;22.30;99.90;;;;;;6189488;23;20024;-83
2023/06/26 07:50:56;;;;;;;1.98;0.45;;;22.50;99.90;;;;;;6215909;23;20046;-86
2023/06/26 07:53:22;;;;;;;5.15;0.60;;;22.40;99.90;;;;;;6210390;23;20170;-84
2023/06/26 07:55:48;;;;;;;6.03;0.60;;;22.50;99.90;;;;;;6219775;23;20410;-84
2023/06/26 07:58:13;;;;;;;2.17;0.40;;;22.60;99.90;;;;;;6219289;23;20078;-84
2023/06/26 08:00:40;;;;;;;5.68;0.57;;;22.90;99.90;;;;;;6246372;23;20451;-85
2023/06/26 08:03:06;;;;;;;3.00;0.50;;;23.00;99.90;;;;;;6219179;23;20020;-85
2023/06/26 08:05:31;;;;;;;2.85;0.47;;;23.30;99.90;;;;;;6246237;23;20031;-85
2023/06/26 08:07:57;;;;;;;1.38;0.47;;;23.20;99.90;;;;;;6246306;23;20023;-84
2023/06/26 08:10:23;;;;;;;3.92;0.50;;;23.00;99.90;;;;;;6219142;23;20016;-84
2023/06/26 08:12:50;;;;;;;2.38;0.52;;;23.10;99.90;;;;;;6245948;23;20362;-85
2023/06/26 08:15:16;;;;;;;3.40;0.60;;;23.00;99.90;;;;;;6246060;23;20453;-85
2023/06/26 08:17:41;;;;;;;1.50;0.60;;;22.80;99.90;;;;;;6246145;23;20028;-85
2023/06/26 08:20:08;;;;;;;2.40;0.50;;;23.10;99.90;;;;;;6245427;23;20016;-85
2023/06/26 08:22:34;;;;;;;2.60;0.50;;;23.00;99.90;;;;;;6219509;23;20043;-84
2023/06/26 08:24:59;;;;;;;5.05;0.65;;;23.00;99.90;;;;;;6246167;23;20435;-85
2023/06/26 08:27:25;;;;;;;2.92;0.70;;;23.20;99.90;;;;;;6218669;23;20063;-84
2023/06/26 08:29:51;;;;;;;3.97;0.50;;;23.10;99.90;;;;;;6218361;23;20016;-84
2023/06/26 08:32:17;;;;;;;5.35;0.50;;;23.00;99.90;;;;;;6218849;23;20024;-87
2023/06/26 08:34:42;;;;;;;3.50;0.60;;;23.20;99.90;;;;;;6218590;23;20350;-84
2023/06/26 08:37:11;;;;;;;3.83;0.30;;;23.10;99.90;;;;;;6245596;23;20058;-84
2023/06/26 08:39:36;;;;;;;3.95;1.15;;;23.20;99.90;;;;;;6218451;23;20466;-86
2023/06/26 08:42:02;;;;;;;2.35;0.50;;;23.10;99.90;;;;;;6245582;23;20027;-85
2023/06/26 08:44:28;;;;;;;1.23;0.30;;;23.00;99.90;;;;;;6245938;23;20325;-84
2023/06/26 08:46:54;;;;;;;3.05;0.60;;;23.10;99.90;;;;;;6245842;23;20016;-85
2023/06/26 08:49:25;;;;;;;2.38;0.60;;;23.20;99.90;;;;;;6245487;23;20020;-85
2023/06/26 08:51:56;;;;;;;2.53;0.60;;;23.30;99.90;;;;;;6245482;23;20020;-85
2023/06/26 08:54:28;;;;;;;1.98;0.60;;;23.30;99.90;;;;;;6245776;23;20655;-85
2023/06/26 08:56:55;;;;;;;1.45;0.55;;;23.70;99.90;;;;;;6245457;23;20024;-84
2023/06/26 08:59:22;;;;;;;2.92;0.57;;;23.90;99.90;;;;;;6245128;23;20146;-85
2023/06/26 09:01:48;;;;;;;4.70;1.08;;;24.10;99.90;;;;;;6245310;23;20098;-84
2023/06/26 09:04:14;;;;;;;2.42;0.80;;;24.20;99.90;;;;;;6218541;23;20020;-85
2023/06/26 09:06:39;;;;;;;3.22;0.60;;;24.00;99.90;;;;;;6245676;23;20027;-84
2023/06/26 09:09:05;;;;;;;3.33;0.75;;;24.10;99.90;;;;;;6245810;23;20016;-85
2023/06/26 09:11:31;;;;;;;1.80;0.50;;;24.20;99.90;;;;;;6218344;23;20120;-85
2023/06/26 09:13:57;;;;;;;4.22;0.60;;;24.30;99.90;;;;;;6245424;23;20024;-86
2023/06/26 09:16:26;;;;;;;1.85;0.55;;;24.40;99.90;;;;;;6218153;23;20059;-84
2023/06/26 09:18:52;;;;;;;1.63;0.40;;;24.60;99.90;;;;;;6245527;23;20042;-84
2023/06/26 09:21:18;;;;;;;2.70;0.57;;;24.90;99.90;;;;;;6245786;23;20028;-84
2023/06/26 09:23:45;;;;;;;2.47;0.70;;;25.00;99.90;;;;;;6218486;23;20101;-85
2023/06/26 09:26:11;;;;;;;4.53;0.70;;;24.80;99.50;;;;;;6245489;23;20024;-86
2023/06/26 09:28:37;;;;;;;2.58;0.50;;;24.50;99.90;;;;;;6244841;23;20062;-84
2023/06/26 09:31:07;;;;;;;2.03;0.50;;;24.50;99.90;;;;;;6218460;23;20020;-83
2023/06/26 09:33:37;;;;;;;4.13;0.65;;;24.60;99.90;;;;;;6245601;23;20027;-85
2023/06/26 09:36:23;;;;;;;2.67;0.50;;;24.60;99.70;;;;;;6218152;23;20020;-86
2023/06/26 09:38:49;;;;;;;1.85;0.60;;;24.40;99.60;;;;;;6245244;23;20016;-85
2023/06/26 09:41:18;;;;;;;3.00;0.50;;;24.60;99.90;;;;;;6245485;23;20035;-85
2023/06/26 09:43:49;;;;;;;3.95;1.60;;;24.60;99.70;;;;;;6245748;23;20020;-84
2023/06/26 09:46:28;;;;;;;2.63;0.60;;;24.70;98.20;;;;;;6245381;23;20087;-85
2023/06/26 09:49:07;;;;;;;1.25;0.40;;;24.90;99.10;;;;;;6245062;23;20035;-85
2023/06/26 09:51:36;;;;;;;2.78;0.68;;;24.80;99.30;;;;;;6245760;23;20028;-86
2023/06/26 09:54:04;;;;;;;8.95;0.80;;;24.40;98.70;;;;;;6244879;23;20077;-88
2023/06/26 09:56:32;;;;;;;3.08;0.75;;;24.30;98.90;;;;;;6218354;23;20031;-86
2023/06/26 09:59:00;;;;;;;5.45;0.80;;;24.20;99.00;;;;;;6245609;23;20031;-83
2023/06/26 10:01:27;;;;;;;3.42;0.70;;;23.90;99.50;;;;;;6243975;23;20020;-83
2023/06/26 10:03:54;;;;;;;2.03;0.70;;;23.80;99.90;;;;;;6245540;23;20020;-83
2023/06/26 10:06:24;;;;;;;1.98;0.55;;;24.30;99.90;;;;;;6244727;23;20534;-83
2023/06/26 10:08:50;;;;;;;5.03;1.15;;;24.40;99.90;;;;;;6243700;23;20052;-84
2023/06/26 10:11:20;;;;;;;3.58;1.00;;;24.10;99.10;;;;;;6245089;23;20062;-83
2023/06/26 10:13:50;;;;;;;3.28;0.52;;;24.20;99.20;;;;;;6218238;23;20035;-84
2023/06/26 10:16:26;;;;;;;2.22;0.88;;;24.10;99.50;;;;;;6245046;23;20020;-82
2023/06/26 10:19:01;;;;;;;5.47;1.00;;;24.60;99.90;;;;;;6245311;23;20020;-83
2023/06/26 10:21:28;;;;;;;;;;;24.50;98.60;;;;;;6245036;23;20094;-86
2023/06/26 10:23:55;;;;;;;4.60;0.90;;;24.30;99.20;;;;;;6245230;23;19915;-84
2023/06/26 10:26:22;;;;;;;1.98;0.90;;;24.30;99.60;;;;;;6245038;23;20393;-87
2023/06/26 10:28:52;;;;;;;3.25;1.35;;;24.30;99.60;;;;;;6217790;23;20477;-87
2023/06/26 10:31:21;;;;;;;2.38;0.90;;;24.10;98.30;;;;;;6247302;23;20143;-85
2023/06/26 10:33:48;;;;;;;1.92;1.00;;;24.30;99.50;;;;;;6246890;23;20020;-85
2023/06/26 10:36:15;;;;;;;3.25;1.30;;;24.50;99.30;;;;;;6195031;23;20047;-86
2023/06/26 10:38:52;;;;;;;4.32;1.20;;;24.60;98.40;;;;;;6247238;23;20070;-85
2023/06/26 10:41:24;;;;;;;2.88;1.02;;;24.80;98.30;;;;;;6247083;23;20394;-86
2023/06/26 10:44:11;;;;;;;1.98;0.77;;;25.20;99.00;;;;;;6246954;23;20066;-85
2023/06/26 10:46:50;;;;;;;2.83;0.90;;;25.60;98.60;;;;;;6218768;23;20031;-87
2023/06/26 10:49:17;;;;;;;1.77;0.60;;;25.90;97.50;;;;;;6219758;23;20020;-85
2023/06/26 10:51:50;;;;;;;5.88;1.00;;;25.70;96.50;;;;;;6219870;23;20020;-85
2023/06/26 10:54:18;;;;;;;4.70;1.05;;;25.80;96.60;;;;;;6246046;23;20028;-86
2023/06/26 10:56:48;;;;;;;2.72;0.60;;;25.60;95.60;;;;;;6246656;23;20019;-86
2023/06/26 10:59:19;;;;;;;2.92;0.90;;;25.50;96.60;;;;;;6219672;23;20338;-85
2023/06/26 11:01:53;;;;;;;5.30;1.00;;;26.00;96.50;;;;;;6218982;23;20020;-87
2023/06/26 11:04:40;;;;;;;2.90;0.82;;;25.80;94.50;;;;;;6246986;23;20012;-86
2023/06/26 11:07:18;;;;;;;6.25;1.05;;;25.40;95.10;;;;;;6219348;23;20020;-86
2023/06/26 11:10:07;;;;;;;4.15;1.00;;;25.20;95.50;;;;;;6219376;23;20016;-85
2023/06/26 11:12:44;;;;;;;2.88;0.57;;;25.00;96.20;;;;;;6246437;23;20091;-84
2023/06/26 11:15:17;;;;;;;1.25;0.60;;;24.80;96.10;;;;;;6244010;23;20490;-85
2023/06/26 11:17:43;;;;;;;1.50;0.50;;;24.60;95.80;;;;;;6246165;23;20020;-85
2023/06/26 11:20:15;;;;;;;4.13;0.52;;;25.00;96.40;;;;;;6240860;23;20024;-85
2023/06/26 11:22:42;;;;;;;4.95;0.60;;;25.40;96.00;;;;;;6219343;23;20039;-86
2023/06/26 11:25:09;;;;;;;1.40;0.50;;;25.40;95.90;;;;;;6245206;23;20019;-85
2023/06/26 11:27:38;;;;;;;2.65;0.40;;;25.20;95.30;;;;;;6246448;23;20155;-85
2023/06/26 11:30:22;;;;;;;1.50;0.50;;;25.30;95.10;;;;;;6245865;23;20027;-83
2023/06/26 11:32:48;;;;;;;0.80;0.40;;;25.50;95.50;;;;;;6246753;23;20339;-82
2023/06/26 11:35:29;;;;;;;2.65;0.52;;;25.80;95.20;;;;;;6246411;23;20024;-85
2023/06/26 11:38:05;;;;;;;4.13;0.50;;;26.00;94.30;;;;;;6245809;23;20454;-82
2023/06/26 11:40:33;;;;;;;;;;;26.20;94.20;;;;;;6245955;23;20016;-83
2023/06/26 11:43:03;;;;;;;2.72;0.40;;;26.40;94.60;;;;;;6246071;23;19918;-84
2023/06/26 11:45:30;;;;;;;1.80;0.40;;;26.70;93.80;;;;;;6246377;23;20098;-86
2023/06/26 11:47:57;;;;;;;2.60;0.35;;;26.60;92.90;;;;;;6245981;23;20050;-84
2023/06/26 11:50:23;;;;;;;1.77;0.30;;;26.60;92.40;;;;;;6245931;23;20454;-83
2023/06/26 11:52:59;;;;;;;3.05;0.40;;;26.70;92.30;;;;;;6219083;23;20074;-84
2023/06/26 11:55:26;;;;;;;5.95;0.70;;;26.60;91.60;;;;;;6219149;23;20020;-84
2023/06/26 11:57:56;;;;;;;3.25;0.50;;;26.70;91.50;;;;;;6219378;23;20020;-85
2023/06/26 12:00:23;;;;;;;2.20;0.30;;;26.00;91.20;;;;;;6245915;23;20351;-84
2023/06/26 12:02:49;;;;;;;2.08;0.60;;;26.40;92.90;;;;;;6246505;23;20016;-84
2023/06/26 12:05:18;;;;;;;2.35;0.50;;;26.60;92.20;;;;;;6219501;23;20347;-83
2023/06/26 12:07:47;;;;;;;4.22;0.43;;;26.30;90.70;;;;;;6218939;23;20055;-84
2023/06/26 12:10:15;;;;;;;0.95;0.30;;;26.40;90.90;;;;;;6219411;23;20339;-84
2023/06/26 12:12:41;;;;;;;3.15;0.30;;;26.80;90.70;;;;;;6193722;23;20024;-84
2023/06/26 12:15:08;;;;;;;3.15;0.50;;;26.60;88.90;;;;;;6218942;23;20021;-85
2023/06/26 12:17:38;;;;;;;2.03;0.40;;;26.90;89.80;;;;;;6246027;23;20075;-85
2023/06/26 12:20:05;;;;;;;4.43;0.40;;;26.90;90.90;;;;;;6245987;23;20576;-90
2023/06/26 12:22:35;;;;;;;2.13;0.40;;;26.90;90.60;;;;;;6219163;23;20012;-88
2023/06/26 12:25:01;;;;;;;2.05;0.50;;;26.60;90.90;;;;;;6218857;23;20027;-89
2023/06/26 12:27:27;;;;;;;3.25;0.70;;;26.00;91.20;;;;;;6245928;23;20099;-88
2023/06/26 12:29:54;;;;;;;2.63;0.50;;;26.00;90.50;;;;;;6244567;23;20353;-87
2023/06/26 12:32:22;;;;;;;1.80;0.28;;;26.20;90.80;;;;;;6218858;23;20466;-86
2023/06/26 12:34:50;;;;;;;2.22;0.40;;;26.50;90.30;;;;;;6245685;23;20019;-86
2023/06/26 12:37:16;;;;;;;4.10;0.60;;;26.60;90.80;;;;;;6245751;23;20020;-86
2023/06/26 12:40:00;;;;;;;5.45;0.55;;;26.40;90.20;;;;;;6218683;23;20030;-85
2023/06/26 12:42:28;;;;;;;2.97;0.70;;;26.00;91.10;;;;;;6245623;23;20020;-89
2023/06/26 12:44:57;;;;;;;2.00;0.68;;;25.90;90.50;;;;;;6218568;23;20366;-85
2023/06/26 12:47:27;;;;;;;2.40;0.50;;;25.70;91.40;;;;;;6218612;23;20111;-88